sensor_id;sensor_type;location;lat;lon;timestamp;P1;durP1;ratioP1;P2;durP2;ratioP2
79149;SDS011;68563;45.644;13.782;2023-12-04T00:01:27;6.13;;;1.63;;
79149;SDS011;68563;45.644;13.782;2023-12-04T00:03:53;2.58;;;1.40;;
79149;SDS011;68563;45.644;13.782;2023-12-04T00:06:18;2.40;;;1.45;;
79149;SDS011;68563;45.644;13.782;2023-12-04T00:08:43;3.78;;;1.55;;
79149;SDS011;68563;45.644;13.782;2023-12-04T00:11:09;2.20;;;1.40;;
79149;SDS011;68563;45.644;13.782;2023-12-04T00:13:35;2.03;;;1.30;;
79149;SDS011;68563;45.644;13.782;2023-12-04T00:16:00;2.88;;;1.55;;
79149;SDS011;68563;45.644;13.782;2023-12-04T00:18:26;2.40;;;1.40;;
79149;SDS011;68563;45.644;13.782;2023-12-04T00:20:51;2.70;;;1.50;;
79149;SDS011;68563;45.644;13.782;2023-12-04T00:23:17;1.92;;;1.25;;
79149;SDS011;68563;45.644;13.782;2023-12-04T00:25:43;2.78;;;1.25;;
79149;SDS011;68563;45.644;13.782;2023-12-04T00:28:08;3.35;;;1.33;;
79149;SDS011;68563;45.644;13.782;2023-12-04T00:30:34;2.13;;;1.30;;
79149;SDS011;68563;45.644;13.782;2023-12-04T00:32:59;2.05;;;1.30;;
79149;SDS011;68563;45.644;13.782;2023-12-04T00:35:24;1.45;;;1.10;;
79149;SDS011;68563;45.644;13.782;2023-12-04T00:37:50;1.80;;;1.20;;
79149;SDS011;68563;45.644;13.782;2023-12-04T00:40:15;2.30;;;1.40;;
79149;SDS011;68563;45.644;13.782;2023-12-04T00:42:41;2.33;;;1.40;;
79149;SDS011;68563;45.644;13.782;2023-12-04T00:45:06;2.33;;;1.50;;
79149;SDS011;68563;45.644;13.782;2023-12-04T00:47:32;2.70;;;1.60;;
79149;SDS011;68563;45.644;13.782;2023-12-04T00:49:58;2.33;;;1.50;;
79149;SDS011;68563;45.644;13.782;2023-12-04T00:52:23;3.22;;;1.65;;
79149;SDS011;68563;45.644;13.782;2023-12-04T00:54:48;1.90;;;1.38;;
79149;SDS011;68563;45.644;13.782;2023-12-04T00:57:14;2.33;;;1.48;;
79149;SDS011;68563;45.644;13.782;2023-12-04T00:59:39;2.80;;;1.50;;
79149;SDS011;68563;45.644;13.782;2023-12-04T01:02:05;2.30;;;1.52;;
79149;SDS011;68563;45.644;13.782;2023-12-04T01:04:32;2.17;;;1.40;;
79149;SDS011;68563;45.644;13.782;2023-12-04T01:06:57;2.22;;;1.38;;
79149;SDS011;68563;45.644;13.782;2023-12-04T01:09:23;2.47;;;1.70;;
79149;SDS011;68563;45.644;13.782;2023-12-04T01:11:52;2.50;;;1.58;;
79149;SDS011;68563;45.644;13.782;2023-12-04T01:14:19;2.90;;;1.60;;
79149;SDS011;68563;45.644;13.782;2023-12-04T01:16:45;2.50;;;1.60;;
79149;SDS011;68563;45.644;13.782;2023-12-04T01:19:11;3.35;;;1.67;;
79149;SDS011;68563;45.644;13.782;2023-12-04T01:21:36;2.45;;;1.52;;
79149;SDS011;68563;45.644;13.782;2023-12-04T01:24:01;2.67;;;1.67;;
79149;SDS011;68563;45.644;13.782;2023-12-04T01:26:27;2.22;;;1.30;;
79149;SDS011;68563;45.644;13.782;2023-12-04T01:28:52;2.88;;;1.80;;
79149;SDS011;68563;45.644;13.782;2023-12-04T01:31:17;2.53;;;1.50;;
79149;SDS011;68563;45.644;13.782;2023-12-04T01:33:43;2.50;;;1.48;;
79149;SDS011;68563;45.644;13.782;2023-12-04T01:36:08;2.40;;;1.63;;
79149;SDS011;68563;45.644;13.782;2023-12-04T01:38:34;2.83;;;1.63;;
79149;SDS011;68563;45.644;13.782;2023-12-04T01:40:59;3.03;;;1.60;;
79149;SDS011;68563;45.644;13.782;2023-12-04T01:43:25;2.83;;;1.60;;
79149;SDS011;68563;45.644;13.782;2023-12-04T01:45:50;2.78;;;1.63;;
79149;SDS011;68563;45.644;13.782;2023-12-04T01:48:17;2.92;;;1.65;;
79149;SDS011;68563;45.644;13.782;2023-12-04T01:50:42;4.55;;;1.50;;
79149;SDS011;68563;45.644;13.782;2023-12-04T01:53:09;2.80;;;1.80;;
79149;SDS011;68563;45.644;13.782;2023-12-04T01:55:34;1.90;;;1.20;;
79149;SDS011;68563;45.644;13.782;2023-12-04T01:58:03;2.65;;;1.60;;
79149;SDS011;68563;45.644;13.782;2023-12-04T02:00:30;2.95;;;1.65;;
79149;SDS011;68563;45.644;13.782;2023-12-04T02:02:56;1.88;;;1.30;;
79149;SDS011;68563;45.644;13.782;2023-12-04T02:05:23;2.67;;;1.50;;
79149;SDS011;68563;45.644;13.782;2023-12-04T02:07:51;2.28;;;1.40;;
79149;SDS011;68563;45.644;13.782;2023-12-04T02:10:17;2.15;;;1.27;;
79149;SDS011;68563;45.644;13.782;2023-12-04T02:12:43;2.00;;;1.20;;
79149;SDS011;68563;45.644;13.782;2023-12-04T02:15:08;1.60;;;1.08;;
79149;SDS011;68563;45.644;13.782;2023-12-04T02:17:34;3.47;;;1.05;;
79149;SDS011;68563;45.644;13.782;2023-12-04T02:20:00;1.85;;;1.05;;
79149;SDS011;68563;45.644;13.782;2023-12-04T02:22:26;3.30;;;1.30;;
79149;SDS011;68563;45.644;13.782;2023-12-04T02:24:51;2.33;;;1.30;;
79149;SDS011;68563;45.644;13.782;2023-12-04T02:27:28;1.80;;;1.17;;
79149;SDS011;68563;45.644;13.782;2023-12-04T02:30:00;2.08;;;1.20;;
79149;SDS011;68563;45.644;13.782;2023-12-04T02:32:30;2.22;;;1.23;;
79149;SDS011;68563;45.644;13.782;2023-12-04T02:34:59;2.72;;;1.38;;
79149;SDS011;68563;45.644;13.782;2023-12-04T02:37:27;2.53;;;1.40;;
79149;SDS011;68563;45.644;13.782;2023-12-04T02:39:53;2.00;;;1.30;;
79149;SDS011;68563;45.644;13.782;2023-12-04T02:42:20;2.08;;;1.38;;
79149;SDS011;68563;45.644;13.782;2023-12-04T02:44:46;1.70;;;1.15;;
79149;SDS011;68563;45.644;13.782;2023-12-04T02:47:11;2.17;;;1.30;;
79149;SDS011;68563;45.644;13.782;2023-12-04T02:49:37;1.98;;;1.30;;
79149;SDS011;68563;45.644;13.782;2023-12-04T02:52:03;1.67;;;1.23;;
79149;SDS011;68563;45.644;13.782;2023-12-04T02:54:28;2.05;;;1.17;;
79149;SDS011;68563;45.644;13.782;2023-12-04T02:56:54;2.15;;;1.23;;
79149;SDS011;68563;45.644;13.782;2023-12-04T02:59:19;2.35;;;1.13;;
79149;SDS011;68563;45.644;13.782;2023-12-04T03:01:44;2.08;;;1.30;;
79149;SDS011;68563;45.644;13.782;2023-12-04T03:04:10;2.65;;;1.20;;
79149;SDS011;68563;45.644;13.782;2023-12-04T03:06:35;2.30;;;1.25;;
79149;SDS011;68563;45.644;13.782;2023-12-04T03:09:02;1.80;;;1.10;;
79149;SDS011;68563;45.644;13.782;2023-12-04T03:11:28;1.77;;;1.20;;
79149;SDS011;68563;45.644;13.782;2023-12-04T03:13:54;2.10;;;1.23;;
79149;SDS011;68563;45.644;13.782;2023-12-04T03:16:19;2.70;;;1.42;;
79149;SDS011;68563;45.644;13.782;2023-12-04T03:18:45;2.05;;;1.30;;
79149;SDS011;68563;45.644;13.782;2023-12-04T03:21:10;1.70;;;1.20;;
79149;SDS011;68563;45.644;13.782;2023-12-04T03:23:36;1.60;;;1.13;;
79149;SDS011;68563;45.644;13.782;2023-12-04T03:26:01;2.15;;;1.27;;
79149;SDS011;68563;45.644;13.782;2023-12-04T03:28:27;1.42;;;1.00;;
79149;SDS011;68563;45.644;13.782;2023-12-04T03:30:53;2.03;;;1.00;;
79149;SDS011;68563;45.644;13.782;2023-12-04T03:33:18;1.85;;;1.17;;
79149;SDS011;68563;45.644;13.782;2023-12-04T03:35:44;1.95;;;1.08;;
79149;SDS011;68563;45.644;13.782;2023-12-04T03:38:09;2.58;;;1.25;;
79149;SDS011;68563;45.644;13.782;2023-12-04T03:40:34;1.77;;;1.15;;
79149;SDS011;68563;45.644;13.782;2023-12-04T03:43:00;2.15;;;1.40;;
79149;SDS011;68563;45.644;13.782;2023-12-04T03:45:25;2.95;;;1.13;;
79149;SDS011;68563;45.644;13.782;2023-12-04T03:47:51;1.85;;;1.23;;
79149;SDS011;68563;45.644;13.782;2023-12-04T03:50:16;2.60;;;1.40;;
79149;SDS011;68563;45.644;13.782;2023-12-04T03:52:41;1.75;;;1.13;;
79149;SDS011;68563;45.644;13.782;2023-12-04T03:55:07;1.95;;;1.35;;
79149;SDS011;68563;45.644;13.782;2023-12-04T03:57:33;1.90;;;1.30;;
79149;SDS011;68563;45.644;13.782;2023-12-04T03:59:59;1.92;;;1.10;;
79149;SDS011;68563;45.644;13.782;2023-12-04T04:02:24;2.28;;;1.25;;
79149;SDS011;68563;45.644;13.782;2023-12-04T04:04:50;1.70;;;1.20;;
79149;SDS011;68563;45.644;13.782;2023-12-04T04:07:15;1.88;;;1.20;;
79149;SDS011;68563;45.644;13.782;2023-12-04T04:09:42;1.77;;;1.23;;
79149;SDS011;68563;45.644;13.782;2023-12-04T04:12:07;2.65;;;1.15;;
79149;SDS011;68563;45.644;13.782;2023-12-04T04:14:33;2.83;;;1.17;;
79149;SDS011;68563;45.644;13.782;2023-12-04T04:16:58;2.78;;;1.30;;
79149;SDS011;68563;45.644;13.782;2023-12-04T04:19:23;1.98;;;1.13;;
79149;SDS011;68563;45.644;13.782;2023-12-04T04:21:49;3.53;;;1.42;;
79149;SDS011;68563;45.644;13.782;2023-12-04T04:24:14;2.45;;;1.33;;
79149;SDS011;68563;45.644;13.782;2023-12-04T04:26:39;2.30;;;1.40;;
79149;SDS011;68563;45.644;13.782;2023-12-04T04:29:05;1.98;;;1.20;;
79149;SDS011;68563;45.644;13.782;2023-12-04T04:31:30;2.78;;;1.30;;
79149;SDS011;68563;45.644;13.782;2023-12-04T04:33:55;2.88;;;1.40;;
79149;SDS011;68563;45.644;13.782;2023-12-04T04:36:21;1.83;;;1.30;;
79149;SDS011;68563;45.644;13.782;2023-12-04T04:38:46;2.00;;;1.40;;
79149;SDS011;68563;45.644;13.782;2023-12-04T04:41:15;2.55;;;1.55;;
79149;SDS011;68563;45.644;13.782;2023-12-04T04:43:41;3.47;;;1.52;;
79149;SDS011;68563;45.644;13.782;2023-12-04T04:46:07;2.60;;;1.67;;
79149;SDS011;68563;45.644;13.782;2023-12-04T04:48:32;2.47;;;1.33;;
79149;SDS011;68563;45.644;13.782;2023-12-04T04:50:57;2.55;;;1.40;;
79149;SDS011;68563;45.644;13.782;2023-12-04T04:53:23;2.70;;;1.40;;
79149;SDS011;68563;45.644;13.782;2023-12-04T04:55:48;3.20;;;1.60;;
79149;SDS011;68563;45.644;13.782;2023-12-04T04:58:14;2.55;;;1.48;;
79149;SDS011;68563;45.644;13.782;2023-12-04T05:00:39;2.40;;;1.58;;
79149;SDS011;68563;45.644;13.782;2023-12-04T05:03:05;2.55;;;1.52;;
79149;SDS011;68563;45.644;13.782;2023-12-04T05:05:30;3.17;;;1.60;;
79149;SDS011;68563;45.644;13.782;2023-12-04T05:07:55;2.75;;;1.63;;
79149;SDS011;68563;45.644;13.782;2023-12-04T05:10:21;2.47;;;1.50;;
79149;SDS011;68563;45.644;13.782;2023-12-04T05:12:46;3.35;;;1.80;;
79149;SDS011;68563;45.644;13.782;2023-12-04T05:15:11;2.83;;;1.60;;
79149;SDS011;68563;45.644;13.782;2023-12-04T05:17:37;6.45;;;1.70;;
79149;SDS011;68563;45.644;13.782;2023-12-04T05:20:02;2.30;;;1.45;;
79149;SDS011;68563;45.644;13.782;2023-12-04T05:22:28;2.60;;;1.52;;
79149;SDS011;68563;45.644;13.782;2023-12-04T05:24:53;2.50;;;1.52;;
79149;SDS011;68563;45.644;13.782;2023-12-04T05:27:19;2.50;;;1.60;;
79149;SDS011;68563;45.644;13.782;2023-12-04T05:29:44;2.75;;;1.30;;
79149;SDS011;68563;45.644;13.782;2023-12-04T05:32:09;2.38;;;1.60;;
79149;SDS011;68563;45.644;13.782;2023-12-04T05:34:35;2.97;;;1.40;;
79149;SDS011;68563;45.644;13.782;2023-12-04T05:37:00;4.38;;;1.63;;
79149;SDS011;68563;45.644;13.782;2023-12-04T05:39:26;4.35;;;1.80;;
79149;SDS011;68563;45.644;13.782;2023-12-04T05:41:51;3.15;;;1.85;;
79149;SDS011;68563;45.644;13.782;2023-12-04T05:44:16;5.07;;;2.28;;
79149;SDS011;68563;45.644;13.782;2023-12-04T05:46:42;3.05;;;1.60;;
79149;SDS011;68563;45.644;13.782;2023-12-04T05:49:07;3.33;;;1.83;;
79149;SDS011;68563;45.644;13.782;2023-12-04T05:51:33;3.42;;;1.58;;
79149;SDS011;68563;45.644;13.782;2023-12-04T05:53:58;2.13;;;1.35;;
79149;SDS011;68563;45.644;13.782;2023-12-04T05:56:23;3.85;;;1.38;;
79149;SDS011;68563;45.644;13.782;2023-12-04T05:58:49;3.38;;;1.60;;
79149;SDS011;68563;45.644;13.782;2023-12-04T06:01:14;2.78;;;1.52;;
79149;SDS011;68563;45.644;13.782;2023-12-04T06:03:40;3.25;;;1.73;;
79149;SDS011;68563;45.644;13.782;2023-12-04T06:06:05;2.13;;;1.38;;
79149;SDS011;68563;45.644;13.782;2023-12-04T06:08:31;3.00;;;1.70;;
79149;SDS011;68563;45.644;13.782;2023-12-04T06:10:57;2.33;;;1.40;;
79149;SDS011;68563;45.644;13.782;2023-12-04T06:13:22;2.58;;;1.50;;
79149;SDS011;68563;45.644;13.782;2023-12-04T06:15:48;2.22;;;1.50;;
79149;SDS011;68563;45.644;13.782;2023-12-04T06:18:14;2.50;;;1.50;;
79149;SDS011;68563;45.644;13.782;2023-12-04T06:20:39;4.03;;;1.67;;
79149;SDS011;68563;45.644;13.782;2023-12-04T06:23:05;3.17;;;1.75;;
79149;SDS011;68563;45.644;13.782;2023-12-04T06:25:30;5.68;;;1.63;;
79149;SDS011;68563;45.644;13.782;2023-12-04T06:27:56;3.00;;;1.67;;
79149;SDS011;68563;45.644;13.782;2023-12-04T06:30:22;3.15;;;1.65;;
79149;SDS011;68563;45.644;13.782;2023-12-04T06:32:47;2.92;;;1.95;;
79149;SDS011;68563;45.644;13.782;2023-12-04T06:35:13;2.72;;;1.80;;
79149;SDS011;68563;45.644;13.782;2023-12-04T06:37:40;2.92;;;1.50;;
79149;SDS011;68563;45.644;13.782;2023-12-04T06:40:06;3.67;;;1.80;;
79149;SDS011;68563;45.644;13.782;2023-12-04T06:42:34;2.88;;;1.48;;
79149;SDS011;68563;45.644;13.782;2023-12-04T06:45:00;3.05;;;1.70;;
79149;SDS011;68563;45.644;13.782;2023-12-04T06:47:26;3.75;;;1.75;;
79149;SDS011;68563;45.644;13.782;2023-12-04T06:49:55;3.30;;;1.60;;
79149;SDS011;68563;45.644;13.782;2023-12-04T06:52:21;2.33;;;1.42;;
79149;SDS011;68563;45.644;13.782;2023-12-04T06:54:46;2.35;;;1.38;;
79149;SDS011;68563;45.644;13.782;2023-12-04T06:57:12;2.75;;;1.52;;
79149;SDS011;68563;45.644;13.782;2023-12-04T06:59:39;3.47;;;1.75;;
79149;SDS011;68563;45.644;13.782;2023-12-04T07:02:07;3.22;;;1.70;;
79149;SDS011;68563;45.644;13.782;2023-12-04T07:04:33;4.10;;;2.08;;
79149;SDS011;68563;45.644;13.782;2023-12-04T07:06:58;3.25;;;1.52;;
79149;SDS011;68563;45.644;13.782;2023-12-04T07:09:30;3.58;;;1.58;;
79149;SDS011;68563;45.644;13.782;2023-12-04T07:11:59;3.47;;;1.65;;
79149;SDS011;68563;45.644;13.782;2023-12-04T07:14:28;3.72;;;1.73;;
79149;SDS011;68563;45.644;13.782;2023-12-04T07:16:53;2.47;;;1.42;;
79149;SDS011;68563;45.644;13.782;2023-12-04T07:19:19;3.10;;;1.80;;
79149;SDS011;68563;45.644;13.782;2023-12-04T07:21:45;2.80;;;1.73;;
79149;SDS011;68563;45.644;13.782;2023-12-04T07:24:10;2.53;;;1.67;;
79149;SDS011;68563;45.644;13.782;2023-12-04T07:26:36;4.18;;;1.80;;
79149;SDS011;68563;45.644;13.782;2023-12-04T07:29:01;2.80;;;1.75;;
79149;SDS011;68563;45.644;13.782;2023-12-04T07:31:28;4.15;;;1.70;;
79149;SDS011;68563;45.644;13.782;2023-12-04T07:33:54;4.00;;;1.70;;
79149;SDS011;68563;45.644;13.782;2023-12-04T07:36:19;2.97;;;1.50;;
79149;SDS011;68563;45.644;13.782;2023-12-04T07:38:45;2.72;;;1.70;;
79149;SDS011;68563;45.644;13.782;2023-12-04T07:41:10;3.95;;;1.65;;
79149;SDS011;68563;45.644;13.782;2023-12-04T07:43:36;2.80;;;1.55;;
79149;SDS011;68563;45.644;13.782;2023-12-04T07:46:01;3.45;;;1.75;;
79149;SDS011;68563;45.644;13.782;2023-12-04T07:48:28;2.28;;;1.40;;
79149;SDS011;68563;45.644;13.782;2023-12-04T07:50:54;2.80;;;1.58;;
79149;SDS011;68563;45.644;13.782;2023-12-04T07:53:20;2.75;;;1.50;;
79149;SDS011;68563;45.644;13.782;2023-12-04T07:55:45;2.38;;;1.45;;
79149;SDS011;68563;45.644;13.782;2023-12-04T07:58:13;2.15;;;1.52;;
79149;SDS011;68563;45.644;13.782;2023-12-04T08:00:38;3.00;;;1.50;;
79149;SDS011;68563;45.644;13.782;2023-12-04T08:03:04;4.15;;;1.60;;
79149;SDS011;68563;45.644;13.782;2023-12-04T08:05:29;2.80;;;1.40;;
79149;SDS011;68563;45.644;13.782;2023-12-04T08:07:56;5.60;;;1.80;;
79149;SDS011;68563;45.644;13.782;2023-12-04T08:10:22;3.03;;;1.70;;
79149;SDS011;68563;45.644;13.782;2023-12-04T08:12:48;3.15;;;1.63;;
79149;SDS011;68563;45.644;13.782;2023-12-04T08:15:13;7.47;;;1.75;;
79149;SDS011;68563;45.644;13.782;2023-12-04T08:17:39;3.55;;;1.50;;
79149;SDS011;68563;45.644;13.782;2023-12-04T08:20:04;1.98;;;1.40;;
79149;SDS011;68563;45.644;13.782;2023-12-04T08:22:40;1.70;;;1.33;;
79149;SDS011;68563;45.644;13.782;2023-12-04T08:25:06;5.13;;;1.48;;
79149;SDS011;68563;45.644;13.782;2023-12-04T08:27:32;2.80;;;2.00;;
79149;SDS011;68563;45.644;13.782;2023-12-04T08:29:57;3.33;;;2.03;;
79149;SDS011;68563;45.644;13.782;2023-12-04T08:32:23;4.13;;;2.28;;
79149;SDS011;68563;45.644;13.782;2023-12-04T08:34:51;3.95;;;2.22;;
79149;SDS011;68563;45.644;13.782;2023-12-04T08:37:16;3.70;;;1.90;;
79149;SDS011;68563;45.644;13.782;2023-12-04T08:39:43;3.08;;;2.17;;
79149;SDS011;68563;45.644;13.782;2023-12-04T08:42:09;4.68;;;2.20;;
79149;SDS011;68563;45.644;13.782;2023-12-04T08:44:34;4.13;;;1.98;;
79149;SDS011;68563;45.644;13.782;2023-12-04T08:47:00;4.80;;;2.20;;
79149;SDS011;68563;45.644;13.782;2023-12-04T08:49:26;4.78;;;2.67;;
79149;SDS011;68563;45.644;13.782;2023-12-04T08:51:51;5.28;;;2.90;;
79149;SDS011;68563;45.644;13.782;2023-12-04T08:54:18;5.47;;;2.15;;
79149;SDS011;68563;45.644;13.782;2023-12-04T08:56:43;10.30;;;2.55;;
79149;SDS011;68563;45.644;13.782;2023-12-04T08:59:09;2.65;;;1.77;;
79149;SDS011;68563;45.644;13.782;2023-12-04T09:01:35;5.20;;;2.55;;
79149;SDS011;68563;45.644;13.782;2023-12-04T09:04:01;4.63;;;2.70;;
79149;SDS011;68563;45.644;13.782;2023-12-04T09:06:26;6.28;;;3.25;;
79149;SDS011;68563;45.644;13.782;2023-12-04T09:08:52;4.75;;;2.65;;
79149;SDS011;68563;45.644;13.782;2023-12-04T09:11:18;11.13;;;3.67;;
79149;SDS011;68563;45.644;13.782;2023-12-04T09:13:44;7.43;;;3.70;;
79149;SDS011;68563;45.644;13.782;2023-12-04T09:16:09;7.45;;;2.83;;
79149;SDS011;68563;45.644;13.782;2023-12-04T09:18:35;6.60;;;3.30;;
79149;SDS011;68563;45.644;13.782;2023-12-04T09:21:00;7.95;;;3.13;;
79149;SDS011;68563;45.644;13.782;2023-12-04T09:23:25;6.13;;;2.80;;
79149;SDS011;68563;45.644;13.782;2023-12-04T09:25:51;6.80;;;2.80;;
79149;SDS011;68563;45.644;13.782;2023-12-04T09:28:16;9.77;;;2.20;;
79149;SDS011;68563;45.644;13.782;2023-12-04T09:30:42;8.18;;;1.88;;
79149;SDS011;68563;45.644;13.782;2023-12-04T09:33:08;7.13;;;2.58;;
79149;SDS011;68563;45.644;13.782;2023-12-04T09:35:33;5.80;;;2.22;;
79149;SDS011;68563;45.644;13.782;2023-12-04T09:37:59;3.67;;;2.40;;
79149;SDS011;68563;45.644;13.782;2023-12-04T09:40:28;4.03;;;2.60;;
79149;SDS011;68563;45.644;13.782;2023-12-04T09:42:53;4.18;;;2.47;;
79149;SDS011;68563;45.644;13.782;2023-12-04T09:45:19;3.83;;;2.53;;
79149;SDS011;68563;45.644;13.782;2023-12-04T09:47:47;6.07;;;2.40;;
79149;SDS011;68563;45.644;13.782;2023-12-04T09:50:14;4.55;;;2.72;;
79149;SDS011;68563;45.644;13.782;2023-12-04T09:52:44;3.10;;;2.25;;
79149;SDS011;68563;45.644;13.782;2023-12-04T09:55:09;3.80;;;2.60;;
79149;SDS011;68563;45.644;13.782;2023-12-04T09:57:35;5.07;;;2.67;;
79149;SDS011;68563;45.644;13.782;2023-12-04T10:00:00;4.05;;;2.70;;
79149;SDS011;68563;45.644;13.782;2023-12-04T10:02:29;4.20;;;2.35;;
79149;SDS011;68563;45.644;13.782;2023-12-04T10:04:56;5.40;;;2.67;;
79149;SDS011;68563;45.644;13.782;2023-12-04T10:07:21;4.38;;;2.90;;
79149;SDS011;68563;45.644;13.782;2023-12-04T10:09:47;4.97;;;2.70;;
79149;SDS011;68563;45.644;13.782;2023-12-04T10:12:14;3.58;;;2.20;;
79149;SDS011;68563;45.644;13.782;2023-12-04T10:15:04;4.18;;;1.83;;
79149;SDS011;68563;45.644;13.782;2023-12-04T10:17:35;4.25;;;2.17;;
79149;SDS011;68563;45.644;13.782;2023-12-04T10:20:05;2.97;;;1.70;;
79149;SDS011;68563;45.644;13.782;2023-12-04T10:22:37;2.22;;;1.20;;
79149;SDS011;68563;45.644;13.782;2023-12-04T10:25:16;2.97;;;1.40;;
79149;SDS011;68563;45.644;13.782;2023-12-04T10:27:43;1.92;;;1.35;;
79149;SDS011;68563;45.644;13.782;2023-12-04T10:30:08;2.83;;;1.40;;
79149;SDS011;68563;45.644;13.782;2023-12-04T10:32:40;3.40;;;1.90;;
79149;SDS011;68563;45.644;13.782;2023-12-04T10:35:06;7.35;;;1.67;;
79149;SDS011;68563;45.644;13.782;2023-12-04T10:37:37;3.00;;;1.15;;
79149;SDS011;68563;45.644;13.782;2023-12-04T10:40:03;4.88;;;1.75;;
79149;SDS011;68563;45.644;13.782;2023-12-04T10:42:33;2.17;;;1.40;;
79149;SDS011;68563;45.644;13.782;2023-12-04T10:44:59;2.90;;;2.00;;
79149;SDS011;68563;45.644;13.782;2023-12-04T10:47:26;3.85;;;1.73;;
79149;SDS011;68563;45.644;13.782;2023-12-04T10:49:54;3.08;;;1.92;;
79149;SDS011;68563;45.644;13.782;2023-12-04T10:52:20;3.80;;;2.00;;
79149;SDS011;68563;45.644;13.782;2023-12-04T10:54:47;5.72;;;1.60;;
79149;SDS011;68563;45.644;13.782;2023-12-04T10:57:16;6.78;;;1.30;;
79149;SDS011;68563;45.644;13.782;2023-12-04T10:59:47;2.55;;;1.50;;
79149;SDS011;68563;45.644;13.782;2023-12-04T11:02:18;3.05;;;1.67;;
79149;SDS011;68563;45.644;13.782;2023-12-04T11:04:47;2.72;;;1.48;;
79149;SDS011;68563;45.644;13.782;2023-12-04T11:07:16;2.63;;;1.50;;
79149;SDS011;68563;45.644;13.782;2023-12-04T11:09:43;4.40;;;1.60;;
79149;SDS011;68563;45.644;13.782;2023-12-04T11:12:11;3.83;;;1.77;;
79149;SDS011;68563;45.644;13.782;2023-12-04T11:14:44;2.72;;;1.70;;
79149;SDS011;68563;45.644;13.782;2023-12-04T11:17:14;3.95;;;1.90;;
79149;SDS011;68563;45.644;13.782;2023-12-04T11:22:32;3.63;;;1.67;;
79149;SDS011;68563;45.644;13.782;2023-12-04T11:25:01;2.95;;;1.60;;
79149;SDS011;68563;45.644;13.782;2023-12-04T11:29:56;2.40;;;1.70;;
79149;SDS011;68563;45.644;13.782;2023-12-04T11:32:24;2.55;;;1.38;;
79149;SDS011;68563;45.644;13.782;2023-12-04T11:34:55;3.28;;;1.27;;
79149;SDS011;68563;45.644;13.782;2023-12-04T11:37:24;2.50;;;1.33;;
79149;SDS011;68563;45.644;13.782;2023-12-04T11:39:50;2.50;;;1.30;;
79149;SDS011;68563;45.644;13.782;2023-12-04T11:42:22;2.83;;;1.30;;
79149;SDS011;68563;45.644;13.782;2023-12-04T11:44:49;3.50;;;1.50;;
79149;SDS011;68563;45.644;13.782;2023-12-04T11:47:15;2.10;;;1.15;;
79149;SDS011;68563;45.644;13.782;2023-12-04T11:49:40;2.78;;;1.30;;
79149;SDS011;68563;45.644;13.782;2023-12-04T11:52:06;1.88;;;1.25;;
79149;SDS011;68563;45.644;13.782;2023-12-04T11:57:34;3.22;;;1.50;;
79149;SDS011;68563;45.644;13.782;2023-12-04T12:00:13;2.13;;;1.20;;
79149;SDS011;68563;45.644;13.782;2023-12-04T12:02:46;2.55;;;1.10;;
79149;SDS011;68563;45.644;13.782;2023-12-04T12:05:26;2.35;;;1.40;;
79149;SDS011;68563;45.644;13.782;2023-12-04T12:07:51;4.05;;;1.90;;
79149;SDS011;68563;45.644;13.782;2023-12-04T12:10:17;3.38;;;1.65;;
79149;SDS011;68563;45.644;13.782;2023-12-04T12:12:42;3.50;;;1.70;;
79149;SDS011;68563;45.644;13.782;2023-12-04T12:15:11;5.18;;;1.40;;
79149;SDS011;68563;45.644;13.782;2023-12-04T12:17:38;2.80;;;1.60;;
79149;SDS011;68563;45.644;13.782;2023-12-04T12:20:05;3.80;;;1.50;;
79149;SDS011;68563;45.644;13.782;2023-12-04T12:22:32;5.40;;;1.70;;
79149;SDS011;68563;45.644;13.782;2023-12-04T12:24:59;3.42;;;1.45;;
79149;SDS011;68563;45.644;13.782;2023-12-04T12:27:25;2.08;;;1.48;;
79149;SDS011;68563;45.644;13.782;2023-12-04T12:29:50;6.85;;;5.22;;
79149;SDS011;68563;45.644;13.782;2023-12-04T12:32:16;7.03;;;5.07;;
79149;SDS011;68563;45.644;13.782;2023-12-04T12:34:41;5.47;;;3.85;;
79149;SDS011;68563;45.644;13.782;2023-12-04T12:37:08;5.22;;;2.60;;
79149;SDS011;68563;45.644;13.782;2023-12-04T12:39:33;5.18;;;2.78;;
79149;SDS011;68563;45.644;13.782;2023-12-04T12:42:00;10.60;;;2.38;;
79149;SDS011;68563;45.644;13.782;2023-12-04T12:44:26;3.97;;;2.30;;
79149;SDS011;68563;45.644;13.782;2023-12-04T12:46:52;4.97;;;2.38;;
79149;SDS011;68563;45.644;13.782;2023-12-04T12:49:18;4.53;;;3.38;;
79149;SDS011;68563;45.644;13.782;2023-12-04T12:51:46;2.70;;;1.73;;
79149;SDS011;68563;45.644;13.782;2023-12-04T12:54:12;10.70;;;4.07;;
79149;SDS011;68563;45.644;13.782;2023-12-04T12:56:38;6.70;;;2.72;;
79149;SDS011;68563;45.644;13.782;2023-12-04T12:59:04;4.90;;;2.40;;
79149;SDS011;68563;45.644;13.782;2023-12-04T13:01:31;3.10;;;1.95;;
79149;SDS011;68563;45.644;13.782;2023-12-04T13:03:57;7.35;;;3.63;;
79149;SDS011;68563;45.644;13.782;2023-12-04T13:06:22;4.43;;;2.30;;
79149;SDS011;68563;45.644;13.782;2023-12-04T13:08:48;4.95;;;2.35;;
79149;SDS011;68563;45.644;13.782;2023-12-04T13:11:13;3.17;;;2.10;;
79149;SDS011;68563;45.644;13.782;2023-12-04T13:13:39;9.63;;;2.45;;
79149;SDS011;68563;45.644;13.782;2023-12-04T13:16:05;7.25;;;2.35;;
79149;SDS011;68563;45.644;13.782;2023-12-04T13:18:31;5.38;;;2.60;;
79149;SDS011;68563;45.644;13.782;2023-12-04T13:21:00;8.80;;;2.25;;
79149;SDS011;68563;45.644;13.782;2023-12-04T13:23:25;4.35;;;2.40;;
79149;SDS011;68563;45.644;13.782;2023-12-04T13:25:51;6.72;;;4.22;;
79149;SDS011;68563;45.644;13.782;2023-12-04T13:28:16;6.40;;;2.55;;
79149;SDS011;68563;45.644;13.782;2023-12-04T13:30:42;4.60;;;2.60;;
79149;SDS011;68563;45.644;13.782;2023-12-04T13:33:07;5.45;;;2.40;;
79149;SDS011;68563;45.644;13.782;2023-12-04T13:35:33;3.58;;;2.20;;
79149;SDS011;68563;45.644;13.782;2023-12-04T13:37:58;2.78;;;2.03;;
79149;SDS011;68563;45.644;13.782;2023-12-04T13:40:24;3.15;;;2.00;;
79149;SDS011;68563;45.644;13.782;2023-12-04T13:42:53;3.95;;;2.30;;
79149;SDS011;68563;45.644;13.782;2023-12-04T13:45:37;4.70;;;2.13;;
79149;SDS011;68563;45.644;13.782;2023-12-04T13:48:03;2.85;;;1.70;;
79149;SDS011;68563;45.644;13.782;2023-12-04T13:50:28;2.70;;;1.50;;
79149;SDS011;68563;45.644;13.782;2023-12-04T13:52:54;3.70;;;1.90;;
79149;SDS011;68563;45.644;13.782;2023-12-04T13:55:23;3.13;;;1.63;;
79149;SDS011;68563;45.644;13.782;2023-12-04T13:58:14;5.50;;;2.00;;
79149;SDS011;68563;45.644;13.782;2023-12-04T14:00:58;3.72;;;1.90;;
79149;SDS011;68563;45.644;13.782;2023-12-04T14:03:25;5.35;;;2.08;;
79149;SDS011;68563;45.644;13.782;2023-12-04T14:05:51;4.85;;;2.10;;
79149;SDS011;68563;45.644;13.782;2023-12-04T14:08:16;5.03;;;2.28;;
79149;SDS011;68563;45.644;13.782;2023-12-04T14:10:41;4.32;;;1.73;;
79149;SDS011;68563;45.644;13.782;2023-12-04T14:13:07;3.20;;;1.85;;
79149;SDS011;68563;45.644;13.782;2023-12-04T14:15:34;5.38;;;2.25;;
79149;SDS011;68563;45.644;13.782;2023-12-04T14:17:59;2.55;;;1.70;;
79149;SDS011;68563;45.644;13.782;2023-12-04T14:20:25;4.20;;;2.05;;
79149;SDS011;68563;45.644;13.782;2023-12-04T14:22:53;4.95;;;2.53;;
79149;SDS011;68563;45.644;13.782;2023-12-04T14:25:19;7.15;;;2.53;;
79149;SDS011;68563;45.644;13.782;2023-12-04T14:27:45;4.78;;;2.50;;
79149;SDS011;68563;45.644;13.782;2023-12-04T14:30:10;3.80;;;2.28;;
79149;SDS011;68563;45.644;13.782;2023-12-04T14:32:38;4.25;;;2.33;;
79149;SDS011;68563;45.644;13.782;2023-12-04T14:35:04;4.70;;;2.33;;
79149;SDS011;68563;45.644;13.782;2023-12-04T14:37:30;5.55;;;2.40;;